sensor_id;sensor_type;location;lat;lon;timestamp;P1;durP1;ratioP1;P2;durP2;ratioP2
46613;SDS011;32338;50.430;6.806;2023-06-14T00:01:48;4.10;;;2.72;;
46613;SDS011;32338;50.430;6.806;2023-06-14T00:04:15;3.00;;;2.80;;
46613;SDS011;32338;50.430;6.806;2023-06-14T00:06:44;4.63;;;2.88;;
46613;SDS011;32338;50.430;6.806;2023-06-14T00:09:12;3.30;;;3.00;;
46613;SDS011;32338;50.430;6.806;2023-06-14T00:11:39;3.60;;;3.30;;
46613;SDS011;32338;50.430;6.806;2023-06-14T00:14:06;4.78;;;2.90;;
46613;SDS011;32338;50.430;6.806;2023-06-14T00:16:32;4.07;;;3.05;;
46613;SDS011;32338;50.430;6.806;2023-06-14T00:19:00;4.65;;;3.05;;
46613;SDS011;32338;50.430;6.806;2023-06-14T00:21:28;3.58;;;2.65;;
46613;SDS011;32338;50.430;6.806;2023-06-14T00:23:55;5.68;;;3.10;;
46613;SDS011;32338;50.430;6.806;2023-06-14T00:26:22;5.78;;;2.97;;
46613;SDS011;32338;50.430;6.806;2023-06-14T00:28:51;4.80;;;3.30;;
46613;SDS011;32338;50.430;6.806;2023-06-14T00:31:17;4.28;;;2.90;;
46613;SDS011;32338;50.430;6.806;2023-06-14T00:33:44;4.80;;;3.20;;
46613;SDS011;32338;50.430;6.806;2023-06-14T00:36:11;4.53;;;3.35;;
46613;SDS011;32338;50.430;6.806;2023-06-14T00:38:38;4.60;;;3.08;;
46613;SDS011;32338;50.430;6.806;2023-06-14T00:41:04;3.95;;;2.90;;
46613;SDS011;32338;50.430;6.806;2023-06-14T00:43:32;4.18;;;3.20;;
46613;SDS011;32338;50.430;6.806;2023-06-14T00:45:59;6.53;;;3.33;;
46613;SDS011;32338;50.430;6.806;2023-06-14T00:48:26;5.10;;;3.30;;
46613;SDS011;32338;50.430;6.806;2023-06-14T00:50:54;3.35;;;3.05;;
46613;SDS011;32338;50.430;6.806;2023-06-14T00:53:21;3.92;;;3.05;;
46613;SDS011;32338;50.430;6.806;2023-06-14T00:55:48;4.97;;;2.65;;
46613;SDS011;32338;50.430;6.806;2023-06-14T00:58:14;3.95;;;3.13;;
46613;SDS011;32338;50.430;6.806;2023-06-14T01:00:43;5.15;;;3.15;;
46613;SDS011;32338;50.430;6.806;2023-06-14T01:03:10;6.15;;;2.95;;
46613;SDS011;32338;50.430;6.806;2023-06-14T01:05:37;4.05;;;3.63;;
46613;SDS011;32338;50.430;6.806;2023-06-14T01:08:07;4.78;;;3.42;;
46613;SDS011;32338;50.430;6.806;2023-06-14T01:10:47;3.72;;;3.17;;
46613;SDS011;32338;50.430;6.806;2023-06-14T01:13:20;3.03;;;2.83;;
46613;SDS011;32338;50.430;6.806;2023-06-14T01:15:51;4.80;;;3.30;;
46613;SDS011;32338;50.430;6.806;2023-06-14T01:18:18;5.05;;;3.42;;
46613;SDS011;32338;50.430;6.806;2023-06-14T01:20:46;3.35;;;3.03;;
46613;SDS011;32338;50.430;6.806;2023-06-14T01:23:15;3.80;;;3.42;;
46613;SDS011;32338;50.430;6.806;2023-06-14T01:25:42;4.18;;;3.30;;
46613;SDS011;32338;50.430;6.806;2023-06-14T01:28:09;3.55;;;3.25;;
46613;SDS011;32338;50.430;6.806;2023-06-14T01:30:38;6.65;;;3.00;;
46613;SDS011;32338;50.430;6.806;2023-06-14T01:33:10;3.88;;;3.30;;
46613;SDS011;32338;50.430;6.806;2023-06-14T01:35:38;4.35;;;3.78;;
46613;SDS011;32338;50.430;6.806;2023-06-14T01:38:05;3.88;;;3.53;;
46613;SDS011;32338;50.430;6.806;2023-06-14T01:40:34;3.72;;;3.42;;
46613;SDS011;32338;50.430;6.806;2023-06-14T01:43:01;5.38;;;3.38;;
46613;SDS011;32338;50.430;6.806;2023-06-14T01:45:29;5.82;;;3.40;;
46613;SDS011;32338;50.430;6.806;2023-06-14T01:47:57;4.07;;;3.25;;
46613;SDS011;32338;50.430;6.806;2023-06-14T01:50:27;4.40;;;3.30;;
46613;SDS011;32338;50.430;6.806;2023-06-14T01:52:54;3.30;;;3.05;;
46613;SDS011;32338;50.430;6.806;2023-06-14T01:55:21;4.03;;;3.72;;
46613;SDS011;32338;50.430;6.806;2023-06-14T01:57:51;3.90;;;3.60;;
46613;SDS011;32338;50.430;6.806;2023-06-14T02:00:18;3.33;;;3.00;;
46613;SDS011;32338;50.430;6.806;2023-06-14T02:02:45;3.88;;;3.58;;
46613;SDS011;32338;50.430;6.806;2023-06-14T02:05:11;5.18;;;3.78;;
46613;SDS011;32338;50.430;6.806;2023-06-14T02:07:38;7.68;;;3.55;;
46613;SDS011;32338;50.430;6.806;2023-06-14T02:10:05;5.50;;;3.65;;
46613;SDS011;32338;50.430;6.806;2023-06-14T02:12:32;4.72;;;3.72;;
46613;SDS011;32338;50.430;6.806;2023-06-14T02:15:00;4.03;;;3.72;;
46613;SDS011;32338;50.430;6.806;2023-06-14T02:17:26;4.13;;;3.83;;
46613;SDS011;32338;50.430;6.806;2023-06-14T02:19:53;3.97;;;3.65;;
46613;SDS011;32338;50.430;6.806;2023-06-14T02:22:20;5.68;;;4.10;;
46613;SDS011;32338;50.430;6.806;2023-06-14T02:24:47;5.03;;;3.80;;
46613;SDS011;32338;50.430;6.806;2023-06-14T02:27:15;4.15;;;3.72;;
46613;SDS011;32338;50.430;6.806;2023-06-14T02:29:41;4.78;;;3.40;;
46613;SDS011;32338;50.430;6.806;2023-06-14T02:32:09;4.25;;;3.95;;
46613;SDS011;32338;50.430;6.806;2023-06-14T02:34:36;4.07;;;3.60;;
46613;SDS011;32338;50.430;6.806;2023-06-14T02:37:05;6.65;;;4.30;;
46613;SDS011;32338;50.430;6.806;2023-06-14T02:39:32;5.60;;;3.78;;
46613;SDS011;32338;50.430;6.806;2023-06-14T02:41:58;4.70;;;3.95;;
46613;SDS011;32338;50.430;6.806;2023-06-14T02:44:25;4.25;;;3.38;;
46613;SDS011;32338;50.430;6.806;2023-06-14T02:46:52;6.15;;;3.75;;
46613;SDS011;32338;50.430;6.806;2023-06-14T02:49:21;5.22;;;3.67;;
46613;SDS011;32338;50.430;6.806;2023-06-14T02:51:48;6.05;;;3.83;;
46613;SDS011;32338;50.430;6.806;2023-06-14T02:54:15;3.45;;;3.15;;
46613;SDS011;32338;50.430;6.806;2023-06-14T02:56:41;3.90;;;3.60;;
46613;SDS011;32338;50.430;6.806;2023-06-14T02:59:08;3.97;;;3.58;;
46613;SDS011;32338;50.430;6.806;2023-06-14T03:01:35;4.30;;;3.80;;
46613;SDS011;32338;50.430;6.806;2023-06-14T03:04:05;3.70;;;3.40;;
46613;SDS011;32338;50.430;6.806;2023-06-14T03:06:34;4.70;;;3.83;;
46613;SDS011;32338;50.430;6.806;2023-06-14T03:09:01;5.45;;;3.58;;
46613;SDS011;32338;50.430;6.806;2023-06-14T03:11:29;4.22;;;3.40;;
46613;SDS011;32338;50.430;6.806;2023-06-14T03:13:56;3.40;;;3.03;;
46613;SDS011;32338;50.430;6.806;2023-06-14T03:16:23;5.97;;;3.33;;
46613;SDS011;32338;50.430;6.806;2023-06-14T03:18:50;4.10;;;3.80;;
46613;SDS011;32338;50.430;6.806;2023-06-14T03:21:18;4.55;;;4.13;;
46613;SDS011;32338;50.430;6.806;2023-06-14T03:23:47;4.68;;;3.80;;
46613;SDS011;32338;50.430;6.806;2023-06-14T03:26:13;4.25;;;3.88;;
46613;SDS011;32338;50.430;6.806;2023-06-14T03:28:42;4.30;;;4.00;;
46613;SDS011;32338;50.430;6.806;2023-06-14T03:31:09;5.57;;;4.00;;
46613;SDS011;32338;50.430;6.806;2023-06-14T03:33:36;4.32;;;3.72;;
46613;SDS011;32338;50.430;6.806;2023-06-14T03:36:02;5.70;;;4.18;;
46613;SDS011;32338;50.430;6.806;2023-06-14T03:38:29;5.32;;;3.88;;
46613;SDS011;32338;50.430;6.806;2023-06-14T03:40:57;7.43;;;3.42;;
46613;SDS011;32338;50.430;6.806;2023-06-14T03:43:24;4.32;;;3.95;;
46613;SDS011;32338;50.430;6.806;2023-06-14T03:45:51;6.75;;;4.22;;
46613;SDS011;32338;50.430;6.806;2023-06-14T03:48:17;4.28;;;3.97;;
46613;SDS011;32338;50.430;6.806;2023-06-14T03:50:44;3.92;;;3.17;;
46613;SDS011;32338;50.430;6.806;2023-06-14T03:53:10;5.20;;;3.95;;
46613;SDS011;32338;50.430;6.806;2023-06-14T03:55:37;4.10;;;3.80;;
46613;SDS011;32338;50.430;6.806;2023-06-14T03:58:05;4.32;;;3.92;;
46613;SDS011;32338;50.430;6.806;2023-06-14T04:00:32;4.20;;;3.80;;
46613;SDS011;32338;50.430;6.806;2023-06-14T04:02:59;5.75;;;4.10;;
46613;SDS011;32338;50.430;6.806;2023-06-14T04:05:26;6.18;;;3.67;;
46613;SDS011;32338;50.430;6.806;2023-06-14T04:07:52;4.68;;;3.88;;
46613;SDS011;32338;50.430;6.806;2023-06-14T04:10:20;8.02;;;4.05;;
46613;SDS011;32338;50.430;6.806;2023-06-14T04:12:47;4.38;;;3.90;;
46613;SDS011;32338;50.430;6.806;2023-06-14T04:15:15;4.25;;;3.95;;
46613;SDS011;32338;50.430;6.806;2023-06-14T04:17:41;4.40;;;4.00;;
46613;SDS011;32338;50.430;6.806;2023-06-14T04:20:08;6.97;;;3.63;;
46613;SDS011;32338;50.430;6.806;2023-06-14T04:22:36;4.47;;;3.63;;
46613;SDS011;32338;50.430;6.806;2023-06-14T04:25:02;4.20;;;3.80;;
46613;SDS011;32338;50.430;6.806;2023-06-14T04:27:31;7.00;;;4.15;;
46613;SDS011;32338;50.430;6.806;2023-06-14T04:30:01;4.18;;;3.80;;
46613;SDS011;32338;50.430;6.806;2023-06-14T04:32:29;4.35;;;3.83;;
46613;SDS011;32338;50.430;6.806;2023-06-14T04:34:58;6.53;;;4.15;;
46613;SDS011;32338;50.430;6.806;2023-06-14T04:37:27;4.47;;;3.90;;
46613;SDS011;32338;50.430;6.806;2023-06-14T04:39:54;4.68;;;3.78;;
46613;SDS011;32338;50.430;6.806;2023-06-14T04:42:22;5.45;;;4.15;;
46613;SDS011;32338;50.430;6.806;2023-06-14T04:44:50;4.90;;;4.40;;
46613;SDS011;32338;50.430;6.806;2023-06-14T04:47:21;4.40;;;4.00;;
46613;SDS011;32338;50.430;6.806;2023-06-14T04:49:49;5.90;;;3.65;;
46613;SDS011;32338;50.430;6.806;2023-06-14T04:52:18;4.28;;;3.88;;
46613;SDS011;32338;50.430;6.806;2023-06-14T04:54:46;4.85;;;4.38;;
46613;SDS011;32338;50.430;6.806;2023-06-14T04:57:12;4.13;;;3.75;;
46613;SDS011;32338;50.430;6.806;2023-06-14T04:59:42;5.07;;;3.90;;
46613;SDS011;32338;50.430;6.806;2023-06-14T05:02:09;4.70;;;4.32;;
46613;SDS011;32338;50.430;6.806;2023-06-14T05:04:36;4.45;;;4.05;;
46613;SDS011;32338;50.430;6.806;2023-06-14T05:07:06;5.32;;;4.03;;
46613;SDS011;32338;50.430;6.806;2023-06-14T05:09:33;4.68;;;4.10;;
46613;SDS011;32338;50.430;6.806;2023-06-14T05:11:59;6.05;;;4.53;;
46613;SDS011;32338;50.430;6.806;2023-06-14T05:14:26;5.53;;;4.72;;
46613;SDS011;32338;50.430;6.806;2023-06-14T05:16:53;4.65;;;4.25;;
46613;SDS011;32338;50.430;6.806;2023-06-14T05:19:19;8.85;;;4.65;;
46613;SDS011;32338;50.430;6.806;2023-06-14T05:21:46;5.40;;;4.82;;
46613;SDS011;32338;50.430;6.806;2023-06-14T05:24:15;5.05;;;4.63;;
46613;SDS011;32338;50.430;6.806;2023-06-14T05:26:42;4.90;;;4.43;;
46613;SDS011;32338;50.430;6.806;2023-06-14T05:29:08;5.50;;;5.00;;
46613;SDS011;32338;50.430;6.806;2023-06-14T05:31:35;5.40;;;4.90;;
46613;SDS011;32338;50.430;6.806;2023-06-14T05:34:01;6.88;;;4.97;;
46613;SDS011;32338;50.430;6.806;2023-06-14T05:36:28;6.25;;;5.68;;
46613;SDS011;32338;50.430;6.806;2023-06-14T05:38:54;5.20;;;4.78;;
46613;SDS011;32338;50.430;6.806;2023-06-14T05:41:24;5.63;;;4.75;;
46613;SDS011;32338;50.430;6.806;2023-06-14T05:43:51;6.72;;;5.03;;
46613;SDS011;32338;50.430;6.806;2023-06-14T05:46:17;8.05;;;4.90;;
46613;SDS011;32338;50.430;6.806;2023-06-14T05:48:47;5.63;;;5.10;;
46613;SDS011;32338;50.430;6.806;2023-06-14T05:51:13;4.68;;;4.28;;
46613;SDS011;32338;50.430;6.806;2023-06-14T05:53:43;8.10;;;5.65;;
46613;SDS011;32338;50.430;6.806;2023-06-14T05:56:10;5.93;;;5.32;;
46613;SDS011;32338;50.430;6.806;2023-06-14T05:58:38;5.35;;;4.95;;
46613;SDS011;32338;50.430;6.806;2023-06-14T06:01:05;5.90;;;5.30;;
46613;SDS011;32338;50.430;6.806;2023-06-14T06:03:31;5.43;;;5.03;;
46613;SDS011;32338;50.430;6.806;2023-06-14T06:05:58;6.07;;;5.15;;
46613;SDS011;32338;50.430;6.806;2023-06-14T06:08:25;6.43;;;4.72;;
46613;SDS011;32338;50.430;6.806;2023-06-14T06:10:52;5.72;;;5.05;;
46613;SDS011;32338;50.430;6.806;2023-06-14T06:13:18;5.25;;;4.85;;
46613;SDS011;32338;50.430;6.806;2023-06-14T06:15:46;5.78;;;4.60;;
46613;SDS011;32338;50.430;6.806;2023-06-14T06:18:13;5.03;;;4.57;;
46613;SDS011;32338;50.430;6.806;2023-06-14T06:20:39;5.28;;;4.78;;
46613;SDS011;32338;50.430;6.806;2023-06-14T06:23:06;5.75;;;5.00;;
46613;SDS011;32338;50.430;6.806;2023-06-14T06:25:34;5.30;;;4.75;;
46613;SDS011;32338;50.430;6.806;2023-06-14T06:28:02;5.05;;;4.65;;
46613;SDS011;32338;50.430;6.806;2023-06-14T06:30:28;4.82;;;4.53;;
46613;SDS011;32338;50.430;6.806;2023-06-14T06:32:56;5.07;;;4.68;;
46613;SDS011;32338;50.430;6.806;2023-06-14T06:35:24;4.60;;;4.30;;
46613;SDS011;32338;50.430;6.806;2023-06-14T06:37:50;11.27;;;4.63;;
46613;SDS011;32338;50.430;6.806;2023-06-14T06:40:17;4.47;;;4.07;;
46613;SDS011;32338;50.430;6.806;2023-06-14T06:42:44;4.57;;;4.03;;
46613;SDS011;32338;50.430;6.806;2023-06-14T06:45:12;8.38;;;4.10;;
46613;SDS011;32338;50.430;6.806;2023-06-14T06:47:38;4.05;;;3.75;;
46613;SDS011;32338;50.430;6.806;2023-06-14T06:50:07;5.70;;;3.53;;
46613;SDS011;32338;50.430;6.806;2023-06-14T06:52:34;6.18;;;3.38;;
46613;SDS011;32338;50.430;6.806;2023-06-14T06:55:01;4.32;;;3.92;;
46613;SDS011;32338;50.430;6.806;2023-06-14T06:57:28;8.50;;;3.72;;
46613;SDS011;32338;50.430;6.806;2023-06-14T06:59:55;4.03;;;3.63;;
46613;SDS011;32338;50.430;6.806;2023-06-14T07:02:21;9.23;;;3.88;;
46613;SDS011;32338;50.430;6.806;2023-06-14T07:04:48;6.18;;;3.88;;
46613;SDS011;32338;50.430;6.806;2023-06-14T07:07:16;5.25;;;3.03;;
46613;SDS011;32338;50.430;6.806;2023-06-14T07:09:43;4.13;;;3.35;;
46613;SDS011;32338;50.430;6.806;2023-06-14T07:12:11;3.88;;;3.58;;
46613;SDS011;32338;50.430;6.806;2023-06-14T07:14:37;7.70;;;3.85;;
46613;SDS011;32338;50.430;6.806;2023-06-14T07:17:04;5.47;;;3.22;;
46613;SDS011;32338;50.430;6.806;2023-06-14T07:19:31;4.85;;;3.40;;
46613;SDS011;32338;50.430;6.806;2023-06-14T07:21:58;7.45;;;3.22;;
46613;SDS011;32338;50.430;6.806;2023-06-14T07:24:26;5.25;;;3.70;;
46613;SDS011;32338;50.430;6.806;2023-06-14T07:26:53;5.60;;;3.08;;
46613;SDS011;32338;50.430;6.806;2023-06-14T07:29:20;9.32;;;3.33;;
46613;SDS011;32338;50.430;6.806;2023-06-14T07:31:47;8.85;;;3.58;;
46613;SDS011;32338;50.430;6.806;2023-06-14T07:34:13;7.53;;;3.08;;
46613;SDS011;32338;50.430;6.806;2023-06-14T07:36:40;4.60;;;3.45;;
46613;SDS011;32338;50.430;6.806;2023-06-14T07:39:09;5.25;;;3.20;;
46613;SDS011;32338;50.430;6.806;2023-06-14T07:41:37;6.40;;;2.75;;
46613;SDS011;32338;50.430;6.806;2023-06-14T07:44:04;4.75;;;3.38;;
46613;SDS011;32338;50.430;6.806;2023-06-14T07:46:31;12.07;;;3.42;;
46613;SDS011;32338;50.430;6.806;2023-06-14T07:48:59;12.80;;;3.03;;
46613;SDS011;32338;50.430;6.806;2023-06-14T07:51:26;3.05;;;2.63;;
46613;SDS011;32338;50.430;6.806;2023-06-14T07:53:52;3.75;;;2.65;;
46613;SDS011;32338;50.430;6.806;2023-06-14T07:56:19;5.70;;;2.72;;
46613;SDS011;32338;50.430;6.806;2023-06-14T07:58:47;4.90;;;3.00;;
46613;SDS011;32338;50.430;6.806;2023-06-14T08:01:14;4.60;;;2.55;;
46613;SDS011;32338;50.430;6.806;2023-06-14T08:03:42;4.90;;;2.95;;
46613;SDS011;32338;50.430;6.806;2023-06-14T08:06:08;8.02;;;2.85;;
46613;SDS011;32338;50.430;6.806;2023-06-14T08:08:35;8.60;;;2.70;;
46613;SDS011;32338;50.430;6.806;2023-06-14T08:11:01;9.25;;;2.67;;
46613;SDS011;32338;50.430;6.806;2023-06-14T08:13:28;9.43;;;2.35;;
46613;SDS011;32338;50.430;6.806;2023-06-14T08:15:56;6.03;;;2.50;;
46613;SDS011;32338;50.430;6.806;2023-06-14T08:18:23;3.90;;;2.13;;
46613;SDS011;32338;50.430;6.806;2023-06-14T08:20:50;5.00;;;2.55;;
46613;SDS011;32338;50.430;6.806;2023-06-14T08:23:17;4.68;;;2.30;;
46613;SDS011;32338;50.430;6.806;2023-06-14T08:25:46;8.25;;;3.17;;
46613;SDS011;32338;50.430;6.806;2023-06-14T08:28:12;6.30;;;2.67;;
46613;SDS011;32338;50.430;6.806;2023-06-14T08:30:39;6.22;;;2.10;;
46613;SDS011;32338;50.430;6.806;2023-06-14T08:33:07;4.75;;;2.00;;
46613;SDS011;32338;50.430;6.806;2023-06-14T08:35:33;5.10;;;2.20;;
46613;SDS011;32338;50.430;6.806;2023-06-14T08:38:02;2.92;;;1.92;;
46613;SDS011;32338;50.430;6.806;2023-06-14T08:40:29;2.45;;;1.88;;
46613;SDS011;32338;50.430;6.806;2023-06-14T08:42:56;12.90;;;2.33;;
46613;SDS011;32338;50.430;6.806;2023-06-14T08:45:23;3.92;;;2.00;;
46613;SDS011;32338;50.430;6.806;2023-06-14T08:47:51;5.43;;;2.40;;
46613;SDS011;32338;50.430;6.806;2023-06-14T08:50:24;5.35;;;2.10;;
46613;SDS011;32338;50.430;6.806;2023-06-14T08:52:55;5.85;;;2.20;;
46613;SDS011;32338;50.430;6.806;2023-06-14T08:55:25;2.88;;;2.25;;
46613;SDS011;32338;50.430;6.806;2023-06-14T08:57:54;5.78;;;2.15;;
46613;SDS011;32338;50.430;6.806;2023-06-14T09:00:22;10.18;;;2.28;;
46613;SDS011;32338;50.430;6.806;2023-06-14T09:02:49;6.78;;;2.75;;
46613;SDS011;32338;50.430;6.806;2023-06-14T09:05:21;8.25;;;2.20;;
46613;SDS011;32338;50.430;6.806;2023-06-14T09:07:50;2.78;;;2.33;;
46613;SDS011;32338;50.430;6.806;2023-06-14T09:10:17;7.00;;;2.67;;
46613;SDS011;32338;50.430;6.806;2023-06-14T09:12:44;8.32;;;2.45;;
46613;SDS011;32338;50.430;6.806;2023-06-14T09:15:12;5.78;;;2.20;;
46613;SDS011;32338;50.430;6.806;2023-06-14T09:17:39;2.35;;;2.15;;
46613;SDS011;32338;50.430;6.806;2023-06-14T09:20:07;2.55;;;2.10;;
46613;SDS011;32338;50.430;6.806;2023-06-14T09:22:37;1.70;;;1.50;;
46613;SDS011;32338;50.430;6.806;2023-06-14T09:25:04;3.55;;;1.73;;
46613;SDS011;32338;50.430;6.806;2023-06-14T09:27:31;4.10;;;1.77;;
46613;SDS011;32338;50.430;6.806;2023-06-14T09:30:00;8.32;;;2.03;;
46613;SDS011;32338;50.430;6.806;2023-06-14T09:32:27;3.38;;;1.92;;
46613;SDS011;32338;50.430;6.806;2023-06-14T09:34:54;6.13;;;1.98;;
46613;SDS011;32338;50.430;6.806;2023-06-14T09:37:27;3.13;;;1.67;;
46613;SDS011;32338;50.430;6.806;2023-06-14T09:39:57;5.65;;;1.90;;
46613;SDS011;32338;50.430;6.806;2023-06-14T09:42:24;5.25;;;2.10;;
46613;SDS011;32338;50.430;6.806;2023-06-14T09:44:53;3.75;;;1.88;;
46613;SDS011;32338;50.430;6.806;2023-06-14T09:47:21;6.15;;;1.80;;
46613;SDS011;32338;50.430;6.806;2023-06-14T09:49:49;3.55;;;1.90;;
46613;SDS011;32338;50.430;6.806;2023-06-14T09:52:17;2.05;;;1.50;;
46613;SDS011;32338;50.430;6.806;2023-06-14T09:54:45;3.03;;;1.80;;
46613;SDS011;32338;50.430;6.806;2023-06-14T09:57:14;1.85;;;1.75;;
46613;SDS011;32338;50.430;6.806;2023-06-14T09:59:42;6.75;;;1.80;;
46613;SDS011;32338;50.430;6.806;2023-06-14T10:02:11;6.50;;;1.63;;
46613;SDS011;32338;50.430;6.806;2023-06-14T10:04:46;2.40;;;2.08;;
46613;SDS011;32338;50.430;6.806;2023-06-14T10:07:18;4.18;;;1.73;;
46613;SDS011;32338;50.430;6.806;2023-06-14T10:09:46;2.10;;;1.40;;
46613;SDS011;32338;50.430;6.806;2023-06-14T10:12:17;3.50;;;1.42;;
46613;SDS011;32338;50.430;6.806;2023-06-14T10:14:47;2.33;;;1.45;;
46613;SDS011;32338;50.430;6.806;2023-06-14T10:17:20;2.50;;;1.90;;
46613;SDS011;32338;50.430;6.806;2023-06-14T10:19:54;1.95;;;1.40;;
46613;SDS011;32338;50.430;6.806;2023-06-14T10:22:26;2.50;;;1.85;;
46613;SDS011;32338;50.430;6.806;2023-06-14T10:24:57;3.40;;;1.48;;
46613;SDS011;32338;50.430;6.806;2023-06-14T10:27:25;1.83;;;1.60;;
46613;SDS011;32338;50.430;6.806;2023-06-14T10:30:04;6.03;;;1.55;;
46613;SDS011;32338;50.430;6.806;2023-06-14T10:32:33;2.03;;;1.48;;
46613;SDS011;32338;50.430;6.806;2023-06-14T10:35:01;7.65;;;2.50;;
46613;SDS011;32338;50.430;6.806;2023-06-14T10:37:31;1.83;;;1.52;;
46613;SDS011;32338;50.430;6.806;2023-06-14T10:39:58;1.40;;;1.30;;
46613;SDS011;32338;50.430;6.806;2023-06-14T10:42:31;2.83;;;1.48;;
46613;SDS011;32338;50.430;6.806;2023-06-14T10:44:58;3.05;;;1.13;;
46613;SDS011;32338;50.430;6.806;2023-06-14T10:47:26;2.92;;;1.25;;
46613;SDS011;32338;50.430;6.806;2023-06-14T10:49:54;1.30;;;1.10;;
46613;SDS011;32338;50.430;6.806;2023-06-14T10:52:25;4.22;;;1.25;;
46613;SDS011;32338;50.430;6.806;2023-06-14T10:55:04;2.08;;;1.40;;
46613;SDS011;32338;50.430;6.806;2023-06-14T10:57:36;1.80;;;1.70;;
46613;SDS011;32338;50.430;6.806;2023-06-14T11:00:04;1.30;;;1.20;;
46613;SDS011;32338;50.430;6.806;2023-06-14T11:02:46;3.05;;;1.17;;
46613;SDS011;32338;50.430;6.806;2023-06-14T11:05:30;4.40;;;1.20;;
46613;SDS011;32338;50.430;6.806;2023-06-14T11:08:24;1.15;;;1.00;;
46613;SDS011;32338;50.430;6.806;2023-06-14T11:10:59;2.45;;;1.27;;
46613;SDS011;32338;50.430;6.806;2023-06-14T11:13:29;2.10;;;1.30;;
46613;SDS011;32338;50.430;6.806;2023-06-14T11:15:55;4.47;;;1.10;;
46613;SDS011;32338;50.430;6.806;2023-06-14T11:18:23;2.28;;;1.20;;
46613;SDS011;32338;50.430;6.806;2023-06-14T11:20:52;2.13;;;1.20;;
46613;SDS011;32338;50.430;6.806;2023-06-14T11:23:20;1.38;;;1.27;;
46613;SDS011;32338;50.430;6.806;2023-06-14T11:25:49;1.35;;;1.20;;
46613;SDS011;32338;50.430;6.806;2023-06-14T11:28:16;3.15;;;1.33;;
46613;SDS011;32338;50.430;6.806;2023-06-14T11:30:46;1.52;;;1.27;;
46613;SDS011;32338;50.430;6.806;2023-06-14T11:33:16;3.85;;;1.40;;
46613;SDS011;32338;50.430;6.806;2023-06-14T11:35:43;3.33;;;1.48;;
46613;SDS011;32338;50.430;6.806;2023-06-14T11:38:10;3.08;;;1.27;;
46613;SDS011;32338;50.430;6.806;2023-06-14T11:40:37;3.88;;;1.33;;
46613;SDS011;32338;50.430;6.806;2023-06-14T11:43:04;1.80;;;1.23;;
46613;SDS011;32338;50.430;6.806;2023-06-14T11:45:31;2.33;;;1.20;;
46613;SDS011;32338;50.430;6.806;2023-06-14T11:47:59;1.55;;;1.20;;
46613;SDS011;32338;50.430;6.806;2023-06-14T11:50:27;3.63;;;1.40;;
46613;SDS011;32338;50.430;6.806;2023-06-14T11:52:54;9.77;;;1.88;;
46613;SDS011;32338;50.430;6.806;2023-06-14T11:55:21;6.18;;;1.20;;
46613;SDS011;32338;50.430;6.806;2023-06-14T11:57:48;1.92;;;1.38;;
46613;SDS011;32338;50.430;6.806;2023-06-14T12:00:15;1.45;;;1.35;;
46613;SDS011;32338;50.430;6.806;2023-06-14T12:02:42;2.78;;;1.13;;
46613;SDS011;32338;50.430;6.806;2023-06-14T12:05:10;4.65;;;1.60;;
46613;SDS011;32338;50.430;6.806;2023-06-14T12:07:37;3.10;;;1.60;;
46613;SDS011;32338;50.430;6.806;2023-06-14T12:10:05;2.97;;;1.55;;
46613;SDS011;32338;50.430;6.806;2023-06-14T12:12:35;4.63;;;1.33;;
46613;SDS011;32338;50.430;6.806;2023-06-14T12:15:02;3.03;;;1.27;;
46613;SDS011;32338;50.430;6.806;2023-06-14T12:17:31;1.30;;;1.10;;
46613;SDS011;32338;50.430;6.806;2023-06-14T12:19:58;2.38;;;0.98;;
46613;SDS011;32338;50.430;6.806;2023-06-14T12:22:27;6.40;;;1.25;;
46613;SDS011;32338;50.430;6.806;2023-06-14T12:24:55;2.38;;;0.98;;
46613;SDS011;32338;50.430;6.806;2023-06-14T12:27:22;1.42;;;1.00;;
46613;SDS011;32338;50.430;6.806;2023-06-14T12:30:00;3.38;;;1.15;;
46613;SDS011;32338;50.430;6.806;2023-06-14T12:32:28;4.63;;;1.23;;
46613;SDS011;32338;50.430;6.806;2023-06-14T12:34:54;1.15;;;1.05;;
46613;SDS011;32338;50.430;6.806;2023-06-14T12:37:21;3.10;;;1.00;;
46613;SDS011;32338;50.430;6.806;2023-06-14T12:39:49;2.25;;;1.13;;
46613;SDS011;32338;50.430;6.806;2023-06-14T12:42:16;5.40;;;1.00;;
46613;SDS011;32338;50.430;6.806;2023-06-14T12:44:43;2.40;;;1.27;;
46613;SDS011;32338;50.430;6.806;2023-06-14T12:47:09;2.08;;;0.98;;
46613;SDS011;32338;50.430;6.806;2023-06-14T12:49:38;4.55;;;1.15;;
46613;SDS011;32338;50.430;6.806;2023-06-14T12:52:06;1.20;;;0.88;;
46613;SDS011;32338;50.430;6.806;2023-06-14T12:54:33;2.13;;;0.98;;
46613;SDS011;32338;50.430;6.806;2023-06-14T12:57:01;1.85;;;1.13;;
46613;SDS011;32338;50.430;6.806;2023-06-14T12:59:28;2.75;;;1.33;;
46613;SDS011;32338;50.430;6.806;2023-06-14T13:01:58;4.20;;;1.15;;
46613;SDS011;32338;50.430;6.806;2023-06-14T13:04:26;2.03;;;1.10;;
46613;SDS011;32338;50.430;6.806;2023-06-14T13:06:52;1.30;;;1.20;;
46613;SDS011;32338;50.430;6.806;2023-06-14T13:09:19;2.67;;;1.00;;
46613;SDS011;32338;50.430;6.806;2023-06-14T13:11:45;1.33;;;1.10;;
46613;SDS011;32338;50.430;6.806;2023-06-14T13:14:13;2.88;;;1.40;;
46613;SDS011;32338;50.430;6.806;2023-06-14T13:16:40;1.20;;;1.10;;
46613;SDS011;32338;50.430;6.806;2023-06-14T13:19:06;4.18;;;1.10;;
46613;SDS011;32338;50.430;6.806;2023-06-14T13:21:33;2.88;;;0.98;;
46613;SDS011;32338;50.430;6.806;2023-06-14T13:24:00;3.35;;;0.82;;
46613;SDS011;32338;50.430;6.806;2023-06-14T13:26:26;1.55;;;1.00;;
46613;SDS011;32338;50.430;6.806;2023-06-14T13:28:53;0.80;;;0.80;;
46613;SDS011;32338;50.430;6.806;2023-06-14T13:31:21;0.88;;;0.77;;
46613;SDS011;32338;50.430;6.806;2023-06-14T13:33:47;1.42;;;1.10;;
46613;SDS011;32338;50.430;6.806;2023-06-14T13:36:14;1.50;;;1.00;;
46613;SDS011;32338;50.430;6.806;2023-06-14T13:38:41;3.95;;;1.02;;
46613;SDS011;32338;50.430;6.806;2023-06-14T13:41:07;0.93;;;0.75;;
46613;SDS011;32338;50.430;6.806;2023-06-14T13:43:34;2.15;;;0.90;;
46613;SDS011;32338;50.430;6.806;2023-06-14T13:46:00;1.23;;;0.75;;
46613;SDS011;32338;50.430;6.806;2023-06-14T13:48:28;3.03;;;0.80;;
46613;SDS011;32338;50.430;6.806;2023-06-14T13:50:55;0.70;;;0.70;;
46613;SDS011;32338;50.430;6.806;2023-06-14T13:53:23;1.50;;;0.73;;
46613;SDS011;32338;50.430;6.806;2023-06-14T13:55:49;2.55;;;0.90;;
46613;SDS011;32338;50.430;6.806;2023-06-14T13:58:17;2.47;;;0.70;;
46613;SDS011;32338;50.430;6.806;2023-06-14T14:00:43;1.20;;;0.90;;
46613;SDS011;32338;50.430;6.806;2023-06-14T14:03:10;0.80;;;0.80;;
46613;SDS011;32338;50.430;6.806;2023-06-14T14:05:38;3.55;;;1.13;;
46613;SDS011;32338;50.430;6.806;2023-06-14T14:08:05;1.13;;;0.88;;
46613;SDS011;32338;50.430;6.806;2023-06-14T14:10:31;2.38;;;1.00;;
46613;SDS011;32338;50.430;6.806;2023-06-14T14:12:58;5.85;;;0.88;;
46613;SDS011;32338;50.430;6.806;2023-06-14T14:15:24;3.50;;;0.73;;
46613;SDS011;32338;50.430;6.806;2023-06-14T14:17:51;2.42;;;0.75;;
46613;SDS011;32338;50.430;6.806;2023-06-14T14:20:19;2.80;;;0.90;;
46613;SDS011;32338;50.430;6.806;2023-06-14T14:22:47;4.00;;;1.00;;
46613;SDS011;32338;50.430;6.806;2023-06-14T14:25:13;1.92;;;0.77;;
46613;SDS011;32338;50.430;6.806;2023-06-14T14:27:40;1.00;;;0.90;;
46613;SDS011;32338;50.430;6.806;2023-06-14T14:30:07;1.48;;;0.85;;
46613;SDS011;32338;50.430;6.806;2023-06-14T14:32:34;1.73;;;0.80;;
46613;SDS011;32338;50.430;6.806;2023-06-14T14:35:01;2.10;;;0.70;;
46613;SDS011;32338;50.430;6.806;2023-06-14T14:37:27;1.77;;;0.68;;
46613;SDS011;32338;50.430;6.806;2023-06-14T14:39:55;1.00;;;1.00;;
46613;SDS011;32338;50.430;6.806;2023-06-14T14:42:22;2.42;;;0.80;;
46613;SDS011;32338;50.430;6.806;2023-06-14T14:44:48;0.98;;;0.70;;
46613;SDS011;32338;50.430;6.806;2023-06-14T14:47:15;4.25;;;0.70;;
46613;SDS011;32338;50.430;6.806;2023-06-14T14:49:41;1.27;;;0.70;;
46613;SDS011;32338;50.430;6.806;2023-06-14T14:52:08;1.80;;;0.80;;